createdAt,value
2022-12-03T00:01:59.160Z,116.20
2022-12-03T00:06:57.481Z,126.40
2022-12-03T00:11:57.818Z,95.70
2022-12-03T00:16:57.163Z,88.60
2022-12-03T00:21:55.283Z,69.50
2022-12-03T00:26:55.625Z,65.20
2022-12-03T00:31:53.760Z,56.80
2022-12-03T00:36:53.900Z,50.10
2022-12-03T00:41:53.034Z,115.70
2022-12-03T00:46:51.284Z,106.90
2022-12-03T00:51:50.337Z,87.10
2022-12-03T00:56:49.478Z,143.20
2022-12-03T01:01:48.861Z,130.90
2022-12-03T01:06:50.031Z,115.80
2022-12-03T01:11:47.322Z,98.70
2022-12-03T01:16:47.614Z,103.40
2022-12-03T01:21:45.889Z,159.60
2022-12-03T01:26:45.191Z,126.90
2022-12-03T01:31:44.530Z,102.80
2022-12-03T01:36:43.653Z,96.00
2022-12-03T01:41:43.959Z,68.80
2022-12-03T01:46:42.344Z,71.80
2022-12-03T01:51:41.453Z,62.70
2022-12-03T01:56:40.741Z,59.30
2022-12-03T02:01:41.115Z,53.70
2022-12-03T02:06:39.183Z,46.70
2022-12-03T02:11:38.461Z,46.70
2022-12-03T02:16:38.764Z,42.30
2022-12-03T02:21:38.041Z,38.90
2022-12-03T02:26:37.315Z,31.90
2022-12-03T02:31:35.687Z,33.80
2022-12-03T02:36:34.821Z,33.60
2022-12-03T02:41:35.135Z,31.30
2022-12-03T02:46:34.500Z,29.50
2022-12-03T02:51:32.611Z,29.40
2022-12-03T02:56:31.896Z,26.40
2022-12-03T03:01:31.322Z,27.70
2022-12-03T03:06:30.463Z,24.00
2022-12-03T03:11:30.781Z,23.90
2022-12-03T03:16:31.069Z,22.50
2022-12-03T03:21:29.402Z,21.30
2022-12-03T03:26:27.660Z,21.20
2022-12-03T03:31:28.046Z,20.10
2022-12-03T03:36:26.169Z,19.60
2022-12-03T03:41:26.311Z,19.00
2022-12-03T03:46:24.673Z,18.60
2022-12-03T03:51:23.792Z,17.20
2022-12-03T03:56:22.085Z,17.10
2022-12-03T04:01:22.453Z,16.30
2022-12-03T04:06:21.539Z,14.90
2022-12-03T04:11:21.859Z,13.70
2022-12-03T04:16:20.162Z,13.50
2022-12-03T04:21:21.489Z,14.80
2022-12-03T04:26:18.850Z,14.30
2022-12-03T04:31:17.999Z,13.40
2022-12-03T04:36:18.158Z,12.60
2022-12-03T04:41:16.482Z,11.50
2022-12-03T04:46:15.681Z,11.60
2022-12-03T04:51:15.849Z,11.20
2022-12-03T04:56:14.915Z,11.40
2022-12-03T05:01:14.283Z,10.80
2022-12-03T05:06:12.390Z,10.50
2022-12-03T05:11:12.757Z,10.00
2022-12-03T05:16:12.091Z,9.50
2022-12-03T05:21:10.380Z,9.70
2022-12-03T05:26:09.644Z,9.90
2022-12-03T05:31:08.961Z,9.50
2022-12-03T05:36:08.269Z,9.70
2022-12-03T05:41:07.556Z,8.60
2022-12-03T05:46:07.908Z,9.30
2022-12-03T05:51:06.988Z,8.80
2022-12-03T05:56:06.256Z,9.90
2022-12-03T06:01:04.527Z,9.80
2022-12-03T06:06:03.836Z,9.80
2022-12-03T06:11:04.145Z,9.80
2022-12-03T06:16:03.526Z,10.90
2022-12-03T06:21:01.656Z,10.20
2022-12-03T06:26:00.934Z,11.60
2022-12-03T06:31:02.348Z,10.90
2022-12-03T06:36:00.478Z,9.70
2022-12-03T06:40:58.774Z,9.90
2022-12-03T06:45:58.079Z,10.30
2022-12-03T06:50:57.403Z,10.10
2022-12-03T06:55:56.704Z,10.00
2022-12-03T07:00:56.005Z,39.70
2022-12-03T07:05:55.329Z,19.10
2022-12-03T07:10:54.642Z,18.90
2022-12-03T07:15:55.007Z,14.20
2022-12-03T07:20:54.136Z,13.90
2022-12-03T07:25:52.457Z,12.30
2022-12-03T07:30:52.825Z,15.20
2022-12-03T07:35:51.036Z,11.80
2022-12-03T07:40:51.338Z,10.40
2022-12-03T07:45:49.668Z,9.90
2022-12-03T07:50:49.827Z,10.10
2022-12-03T07:55:48.143Z,11.60
2022-12-03T08:00:47.534Z,11.10
2022-12-03T08:05:48.747Z,10.80
2022-12-03T08:10:47.076Z,8.90
2022-12-03T08:15:45.400Z,9.00
2022-12-03T08:20:44.734Z,7.80
2022-12-03T08:25:44.051Z,7.90
2022-12-03T08:30:45.355Z,6.40
2022-12-03T08:35:42.670Z,6.70
2022-12-03T08:40:42.990Z,5.70
2022-12-03T08:45:41.428Z,5.40
2022-12-03T08:50:39.578Z,5.90
2022-12-03T08:55:40.697Z,6.90
2022-12-03T09:00:39.035Z,7.70
2022-12-03T09:05:38.202Z,4.60
2022-12-03T09:10:37.526Z,5.00
2022-12-03T09:15:36.836Z,4.40
2022-12-03T09:20:36.139Z,4.30
2022-12-03T09:25:35.456Z,4.50
2022-12-03T09:30:35.762Z,4.20
2022-12-03T09:35:35.106Z,24.60
2022-12-03T09:40:34.422Z,131.20
2022-12-03T09:45:32.781Z,156.70
2022-12-03T09:50:31.926Z,136.00
2022-12-03T09:55:32.266Z,119.00
2022-12-03T10:00:31.571Z,103.10
2022-12-03T10:05:31.881Z,93.50
2022-12-03T10:10:29.205Z,83.30
2022-12-03T10:15:28.501Z,29.10
2022-12-03T10:20:28.815Z,27.10
2022-12-03T10:25:27.113Z,22.90
2022-12-03T10:30:27.536Z,22.00
2022-12-03T10:35:25.696Z,19.10
2022-12-03T10:40:24.982Z,17.20
2022-12-03T10:45:24.258Z,55.00
2022-12-03T10:50:23.573Z,73.10
2022-12-03T10:55:22.905Z,75.10
2022-12-03T11:00:22.267Z,68.90
2022-12-03T11:05:21.400Z,86.90
2022-12-03T11:10:20.523Z,81.00
2022-12-03T11:15:20.721Z,62.00
2022-12-03T11:20:22.919Z,52.70
2022-12-03T11:25:19.073Z,51.30
2022-12-03T11:30:18.389Z,54.10
2022-12-03T11:35:16.651Z,97.10
2022-12-03T11:40:16.052Z,154.00
2022-12-03T11:45:15.203Z,118.60
2022-12-03T11:50:14.500Z,99.00
2022-12-03T11:55:13.806Z,85.60
2022-12-03T12:00:12.974Z,77.60
2022-12-03T12:05:14.272Z,98.40
2022-12-03T12:10:12.585Z,133.60
2022-12-03T12:15:10.931Z,83.10
2022-12-03T12:20:10.108Z,97.50
2022-12-03T12:25:09.207Z,100.90
2022-12-03T12:30:08.550Z,128.80
2022-12-03T12:35:08.666Z,108.00
2022-12-03T12:40:06.977Z,91.70
2022-12-03T12:45:06.319Z,197.80
2022-12-03T12:50:05.631Z,148.20
2022-12-03T12:55:05.426Z,154.70
2022-12-03T13:00:05.154Z,177.90
2022-12-03T13:05:03.491Z,141.00
2022-12-03T13:10:02.774Z,121.10
2022-12-03T13:15:02.077Z,101.30
2022-12-03T13:20:07.754Z,89.10
2022-12-03T13:25:00.508Z,93.50
2022-12-03T13:29:59.754Z,224.30
2022-12-03T13:35:00.905Z,201.30
2022-12-03T13:39:58.077Z,81.60
2022-12-03T13:44:57.252Z,75.00
2022-12-03T13:49:58.423Z,65.20
2022-12-03T13:54:55.594Z,53.30
2022-12-03T13:59:54.965Z,44.60
2022-12-03T14:04:59.760Z,49.10
2022-12-03T14:09:53.672Z,38.90
2022-12-03T14:14:53.638Z,36.50
2022-12-03T14:19:52.188Z,31.00
2022-12-03T14:24:52.136Z,33.40
2022-12-03T14:29:50.320Z,32.40
2022-12-03T14:34:50.504Z,27.70
2022-12-03T14:39:48.703Z,24.90
2022-12-03T14:44:47.930Z,24.40
2022-12-03T14:49:47.095Z,24.70
2022-12-03T14:54:46.242Z,23.30
2022-12-03T14:59:46.420Z,23.20
2022-12-03T15:04:46.589Z,22.50
2022-12-03T15:09:44.775Z,17.80
2022-12-03T15:14:42.968Z,22.70
2022-12-03T15:19:45.316Z,18.10
2022-12-03T15:24:42.318Z,17.20
2022-12-03T15:29:42.552Z,16.30
2022-12-03T15:34:39.801Z,22.10
2022-12-03T15:39:52.399Z,17.30
2022-12-03T15:44:38.208Z,17.00
2022-12-03T15:49:37.472Z,19.50
2022-12-03T15:54:37.885Z,18.20
2022-12-03T15:59:35.924Z,17.90
2022-12-03T16:04:34.122Z,16.80
2022-12-03T16:09:34.432Z,17.70
2022-12-03T16:14:34.797Z,17.70
2022-12-03T16:19:35.033Z,17.10
2022-12-03T16:24:33.323Z,17.00
2022-12-03T16:29:31.674Z,16.60
2022-12-03T16:34:31.006Z,16.30
2022-12-03T16:39:29.182Z,16.30
2022-12-03T16:44:32.970Z,15.80
2022-12-03T16:49:28.493Z,16.10
2022-12-03T16:54:27.355Z,15.30
2022-12-03T16:59:27.952Z,15.40
2022-12-03T17:04:26.016Z,15.40
2022-12-03T17:09:26.036Z,16.40
2022-12-03T17:14:29.862Z,14.90
2022-12-03T17:19:24.709Z,15.70
2022-12-03T17:24:22.886Z,14.50
2022-12-03T17:29:22.203Z,14.10
2022-12-03T17:34:21.193Z,38.00
2022-12-03T17:39:21.499Z,32.90
2022-12-03T17:44:21.461Z,62.30
2022-12-03T17:49:17.977Z,46.90
2022-12-03T17:54:18.996Z,58.10
2022-12-03T17:59:18.245Z,54.10
2022-12-03T18:04:16.538Z,46.20
2022-12-03T18:09:18.023Z,36.80
2022-12-03T18:14:19.905Z,34.30
2022-12-03T18:19:13.528Z,36.10
2022-12-03T18:24:13.441Z,36.90
2022-12-03T18:29:13.710Z,33.60
2022-12-03T18:34:13.056Z,44.60
2022-12-03T18:39:11.342Z,41.10
2022-12-03T18:44:13.445Z,41.90
2022-12-03T18:49:09.823Z,46.90
2022-12-03T18:54:09.785Z,44.00
2022-12-03T18:59:08.113Z,41.70
2022-12-03T19:04:07.190Z,40.90
2022-12-03T19:09:07.768Z,37.30
2022-12-03T19:14:04.807Z,29.90
2022-12-03T19:19:05.201Z,27.90
2022-12-03T19:24:25.328Z,28.30
2022-12-03T19:29:03.761Z,26.20
2022-12-03T19:34:02.916Z,26.10
2022-12-03T19:39:02.106Z,24.40
2022-12-03T19:44:00.403Z,25.80
2022-12-03T19:49:01.663Z,29.30
2022-12-03T19:54:00.180Z,27.30
2022-12-03T19:58:59.407Z,27.00
2022-12-03T20:03:57.440Z,25.80
2022-12-03T20:08:57.615Z,24.90
2022-12-03T20:13:56.837Z,30.60
2022-12-03T20:18:56.077Z,35.90
2022-12-03T20:23:55.268Z,41.50
2022-12-03T20:28:54.464Z,39.00
2022-12-03T20:33:54.650Z,34.60
2022-12-03T20:38:51.831Z,31.90
2022-12-03T20:43:51.963Z,28.70
2022-12-03T20:48:51.124Z,30.60
2022-12-03T20:53:50.355Z,45.40
2022-12-03T20:58:49.857Z,43.70
2022-12-03T21:03:50.332Z,59.00
2022-12-03T21:08:48.372Z,54.20
2022-12-03T21:13:47.453Z,49.00
2022-12-03T21:18:46.679Z,45.30
2022-12-03T21:23:45.879Z,42.60
2022-12-03T21:28:46.955Z,36.20
2022-12-03T21:33:44.690Z,35.10
2022-12-03T21:38:42.767Z,31.50
2022-12-03T21:43:46.745Z,28.80
2022-12-03T21:48:43.097Z,24.20
2022-12-03T21:53:43.634Z,25.60
2022-12-03T21:58:40.794Z,23.90
2022-12-03T22:03:39.917Z,55.50
2022-12-03T22:08:39.187Z,44.80
2022-12-03T22:13:38.242Z,39.40
2022-12-03T22:18:38.460Z,34.60
2022-12-03T22:23:37.827Z,39.60
2022-12-03T22:28:34.821Z,39.00
2022-12-03T22:33:35.141Z,45.30
2022-12-03T22:38:34.469Z,37.70
2022-12-03T22:43:33.661Z,34.50
2022-12-03T22:48:32.882Z,37.00
2022-12-03T22:53:31.155Z,44.00
2022-12-03T22:58:31.479Z,38.10
2022-12-03T23:03:31.521Z,50.30
2022-12-03T23:08:29.805Z,48.40
2022-12-03T23:13:29.165Z,44.10
2022-12-03T23:18:28.384Z,37.00
2022-12-03T23:23:26.659Z,28.10
2022-12-03T23:28:29.877Z,32.40
2022-12-03T23:33:26.342Z,35.80
2022-12-03T23:38:25.370Z,37.10
2022-12-03T23:43:24.669Z,37.60
2022-12-03T23:48:23.878Z,33.90
2022-12-03T23:53:23.137Z,29.10
2022-12-03T23:58:22.047Z,30.30
